sensor_id;sensor_type;location;lat;lon;timestamp;pressure;altitude;pressure_sealevel;temperature;humidity
81608;BME280;71022;48.122;11.576;2023-08-17T00:01:55;95708.66;;;21.96;67.45
81608;BME280;71022;48.122;11.576;2023-08-17T00:04:22;95703.91;;;21.93;67.84
81608;BME280;71022;48.122;11.576;2023-08-17T00:06:54;95709.03;;;22.21;66.53
81608;BME280;71022;48.122;11.576;2023-08-17T00:09:25;95705.63;;;22.10;67.04
81608;BME280;71022;48.122;11.576;2023-08-17T00:11:55;95709.38;;;22.00;67.17
81608;BME280;71022;48.122;11.576;2023-08-17T00:14:23;95704.06;;;21.82;67.78
81608;BME280;71022;48.122;11.576;2023-08-17T00:16:50;95701.75;;;21.77;68.40
81608;BME280;71022;48.122;11.576;2023-08-17T00:19:21;95702.38;;;21.88;68.03
81608;BME280;71022;48.122;11.576;2023-08-17T00:21:49;95700.75;;;21.91;68.16
81608;BME280;71022;48.122;11.576;2023-08-17T00:24:16;95702.94;;;22.26;66.60
81608;BME280;71022;48.122;11.576;2023-08-17T00:26:43;95703.28;;;22.28;66.65
81608;BME280;71022;48.122;11.576;2023-08-17T00:29:11;95705.13;;;22.15;66.67
81608;BME280;71022;48.122;11.576;2023-08-17T00:31:38;95695.75;;;22.02;67.23
81608;BME280;71022;48.122;11.576;2023-08-17T00:34:05;95708.59;;;21.99;67.28
81608;BME280;71022;48.122;11.576;2023-08-17T00:36:35;95701.34;;;22.02;67.54
81608;BME280;71022;48.122;11.576;2023-08-17T00:39:06;95699.72;;;22.04;67.53
81608;BME280;71022;48.122;11.576;2023-08-17T00:41:34;95713.09;;;22.17;67.21
81608;BME280;71022;48.122;11.576;2023-08-17T00:44:04;95702.69;;;22.17;66.82
81608;BME280;71022;48.122;11.576;2023-08-17T00:46:41;95705.47;;;22.40;65.60
81608;BME280;71022;48.122;11.576;2023-08-17T00:49:10;95701.34;;;22.48;65.56
81608;BME280;71022;48.122;11.576;2023-08-17T00:51:41;95714.34;;;22.58;65.26
81608;BME280;71022;48.122;11.576;2023-08-17T00:54:12;95701.88;;;22.63;65.16
81608;BME280;71022;48.122;11.576;2023-08-17T00:56:43;95695.25;;;22.53;65.61
81608;BME280;71022;48.122;11.576;2023-08-17T00:59:15;95698.09;;;22.50;65.62
81608;BME280;71022;48.122;11.576;2023-08-17T01:01:46;95692.34;;;22.37;66.39
81608;BME280;71022;48.122;11.576;2023-08-17T01:04:18;95692.72;;;22.39;65.80
81608;BME280;71022;48.122;11.576;2023-08-17T01:06:50;95698.16;;;22.46;66.03
81608;BME280;71022;48.122;11.576;2023-08-17T01:09:23;95686.06;;;22.53;65.79
81608;BME280;71022;48.122;11.576;2023-08-17T01:14:51;95696.84;;;22.31;66.29
81608;BME280;71022;48.122;11.576;2023-08-17T01:17:45;95690.66;;;22.20;66.03
81608;BME280;71022;48.122;11.576;2023-08-17T01:20:23;95701.31;;;22.05;67.32
81608;BME280;71022;48.122;11.576;2023-08-17T01:23:07;95691.03;;;21.99;66.95
81608;BME280;71022;48.122;11.576;2023-08-17T01:25:45;95708.59;;;22.23;66.74
81608;BME280;71022;48.122;11.576;2023-08-17T01:28:14;95704.53;;;22.04;67.19
81608;BME280;71022;48.122;11.576;2023-08-17T01:30:48;95698.56;;;22.02;67.12
81608;BME280;71022;48.122;11.576;2023-08-17T01:33:33;95713.53;;;22.15;66.67
81608;BME280;71022;48.122;11.576;2023-08-17T01:36:20;95718.22;;;22.22;66.41
81608;BME280;71022;48.122;11.576;2023-08-17T01:38:59;95717.78;;;22.23;66.13
81608;BME280;71022;48.122;11.576;2023-08-17T01:41:42;95699.06;;;22.20;66.28
81608;BME280;71022;48.122;11.576;2023-08-17T01:44:24;95690.78;;;22.13;66.21
81608;BME280;71022;48.122;11.576;2023-08-17T01:46:56;95696.50;;;22.06;66.69
81608;BME280;71022;48.122;11.576;2023-08-17T01:49:27;95699.41;;;21.99;66.46
81608;BME280;71022;48.122;11.576;2023-08-17T01:51:55;95691.06;;;21.69;67.64
81608;BME280;71022;48.122;11.576;2023-08-17T01:54:43;95701.75;;;21.77;68.02
81608;BME280;71022;48.122;11.576;2023-08-17T01:57:14;95692.44;;;21.84;67.39
81608;BME280;71022;48.122;11.576;2023-08-17T01:59:45;95677.41;;;22.01;66.92
81608;BME280;71022;48.122;11.576;2023-08-17T02:02:15;95688.78;;;21.87;67.51
81608;BME280;71022;48.122;11.576;2023-08-17T02:04:44;95681.84;;;21.72;67.57
81608;BME280;71022;48.122;11.576;2023-08-17T02:07:13;95690.75;;;21.63;68.28
81608;BME280;71022;48.122;11.576;2023-08-17T02:09:40;95677.81;;;21.49;68.84
81608;BME280;71022;48.122;11.576;2023-08-17T02:12:10;95685.91;;;21.67;67.81
81608;BME280;71022;48.122;11.576;2023-08-17T02:14:38;95669.53;;;21.42;68.45
81608;BME280;71022;48.122;11.576;2023-08-17T02:17:07;95673.63;;;21.34;68.65
81608;BME280;71022;48.122;11.576;2023-08-17T02:19:35;95673.88;;;21.17;70.07
81608;BME280;71022;48.122;11.576;2023-08-17T02:22:03;95671.69;;;21.31;69.22
81608;BME280;71022;48.122;11.576;2023-08-17T02:24:30;95656.88;;;21.34;69.13
81608;BME280;71022;48.122;11.576;2023-08-17T02:26:58;95671.97;;;21.40;68.92
81608;BME280;71022;48.122;11.576;2023-08-17T02:29:26;95669.88;;;21.44;68.80
81608;BME280;71022;48.122;11.576;2023-08-17T02:31:54;95670.13;;;21.53;68.59
81608;BME280;71022;48.122;11.576;2023-08-17T02:34:25;95671.50;;;21.69;67.94
81608;BME280;71022;48.122;11.576;2023-08-17T02:36:52;95671.41;;;21.76;67.71
81608;BME280;71022;48.122;11.576;2023-08-17T02:39:19;95665.50;;;21.97;66.68
81608;BME280;71022;48.122;11.576;2023-08-17T02:41:46;95667.41;;;21.77;66.73
81608;BME280;71022;48.122;11.576;2023-08-17T02:44:16;95663.72;;;21.30;68.31
81608;BME280;71022;48.122;11.576;2023-08-17T02:46:43;95669.31;;;21.00;69.75
81608;BME280;71022;48.122;11.576;2023-08-17T02:49:10;95670.34;;;20.79;70.55
81608;BME280;71022;48.122;11.576;2023-08-17T02:51:38;95664.75;;;20.79;70.86
81608;BME280;71022;48.122;11.576;2023-08-17T02:54:05;95676.47;;;21.01;69.47
81608;BME280;71022;48.122;11.576;2023-08-17T02:56:32;95675.72;;;20.96;69.32
81608;BME280;71022;48.122;11.576;2023-08-17T02:58:59;95671.66;;;20.71;69.96
81608;BME280;71022;48.122;11.576;2023-08-17T03:01:27;95666.31;;;20.50;70.72
81608;BME280;71022;48.122;11.576;2023-08-17T03:03:54;95669.28;;;20.35;71.66
81608;BME280;71022;48.122;11.576;2023-08-17T03:06:21;95667.56;;;20.45;71.29
81608;BME280;71022;48.122;11.576;2023-08-17T03:08:49;95666.72;;;20.52;71.15
81608;BME280;71022;48.122;11.576;2023-08-17T03:11:16;95676.94;;;20.62;71.02
81608;BME280;71022;48.122;11.576;2023-08-17T03:13:43;95667.19;;;20.77;70.20
81608;BME280;71022;48.122;11.576;2023-08-17T03:16:12;95677.59;;;20.73;70.23
81608;BME280;71022;48.122;11.576;2023-08-17T03:18:40;95668.13;;;20.67;70.47
81608;BME280;71022;48.122;11.576;2023-08-17T03:21:11;95679.16;;;20.77;69.83
81608;BME280;71022;48.122;11.576;2023-08-17T03:23:38;95674.78;;;21.10;68.64
81608;BME280;71022;48.122;11.576;2023-08-17T03:26:05;95681.03;;;21.18;68.25
81608;BME280;71022;48.122;11.576;2023-08-17T03:28:32;95677.56;;;21.07;68.60
81608;BME280;71022;48.122;11.576;2023-08-17T03:31:00;95684.75;;;21.08;68.39
81608;BME280;71022;48.122;11.576;2023-08-17T03:33:27;95687.16;;;21.06;68.40
81608;BME280;71022;48.122;11.576;2023-08-17T03:35:54;95681.16;;;21.07;67.60
81608;BME280;71022;48.122;11.576;2023-08-17T03:38:24;95684.34;;;21.09;67.99
81608;BME280;71022;48.122;11.576;2023-08-17T03:40:52;95677.72;;;20.96;67.95
81608;BME280;71022;48.122;11.576;2023-08-17T03:43:22;95684.38;;;20.75;69.08
81608;BME280;71022;48.122;11.576;2023-08-17T03:45:49;95688.13;;;20.58;69.46
81608;BME280;71022;48.122;11.576;2023-08-17T03:48:17;95683.34;;;20.59;69.84
81608;BME280;71022;48.122;11.576;2023-08-17T03:50:45;95683.94;;;20.77;69.04
81608;BME280;71022;48.122;11.576;2023-08-17T03:53:12;95676.50;;;20.97;68.25
81608;BME280;71022;48.122;11.576;2023-08-17T03:55:45;95680.34;;;21.10;67.86
81608;BME280;71022;48.122;11.576;2023-08-17T03:58:12;95683.16;;;21.10;67.79
81608;BME280;71022;48.122;11.576;2023-08-17T04:00:39;95681.00;;;21.21;67.06
81608;BME280;71022;48.122;11.576;2023-08-17T04:03:08;95683.69;;;20.98;67.58
81608;BME280;71022;48.122;11.576;2023-08-17T04:05:35;95684.88;;;20.67;69.16
81608;BME280;71022;48.122;11.576;2023-08-17T04:08:03;95696.19;;;20.53;69.52
81608;BME280;71022;48.122;11.576;2023-08-17T04:10:30;95694.53;;;20.59;69.32
81608;BME280;71022;48.122;11.576;2023-08-17T04:12:58;95695.31;;;20.59;69.49
81608;BME280;71022;48.122;11.576;2023-08-17T04:15:25;95689.88;;;20.49;70.17
81608;BME280;71022;48.122;11.576;2023-08-17T04:17:52;95696.28;;;20.46;70.08
81608;BME280;71022;48.122;11.576;2023-08-17T04:20:20;95690.09;;;20.27;70.87
81608;BME280;71022;48.122;11.576;2023-08-17T04:22:48;95689.13;;;20.41;70.53
81608;BME280;71022;48.122;11.576;2023-08-17T04:25:16;95700.72;;;20.39;70.80
81608;BME280;71022;48.122;11.576;2023-08-17T04:27:43;95704.13;;;20.58;70.29
81608;BME280;71022;48.122;11.576;2023-08-17T04:30:11;95706.94;;;20.88;69.19
81608;BME280;71022;48.122;11.576;2023-08-17T04:32:48;95708.53;;;20.89;68.76
81608;BME280;71022;48.122;11.576;2023-08-17T04:35:20;95714.56;;;20.84;68.95
81608;BME280;71022;48.122;11.576;2023-08-17T04:37:47;95709.94;;;20.70;69.48
81608;BME280;71022;48.122;11.576;2023-08-17T04:40:15;95711.94;;;20.70;69.27
81608;BME280;71022;48.122;11.576;2023-08-17T04:42:42;95714.53;;;20.50;70.01
81608;BME280;71022;48.122;11.576;2023-08-17T04:45:10;95717.50;;;20.70;69.51
81608;BME280;71022;48.122;11.576;2023-08-17T04:47:41;95721.81;;;20.40;70.93
81608;BME280;71022;48.122;11.576;2023-08-17T04:50:12;95726.56;;;20.43;70.72
81608;BME280;71022;48.122;11.576;2023-08-17T04:52:44;95720.75;;;20.65;70.12
81608;BME280;71022;48.122;11.576;2023-08-17T04:55:13;95721.72;;;20.85;69.49
81608;BME280;71022;48.122;11.576;2023-08-17T04:57:42;95728.00;;;20.96;68.97
81608;BME280;71022;48.122;11.576;2023-08-17T05:00:11;95724.69;;;21.08;68.68
81608;BME280;71022;48.122;11.576;2023-08-17T05:02:39;95720.22;;;21.14;68.19
81608;BME280;71022;48.122;11.576;2023-08-17T05:05:09;95719.38;;;21.17;68.15
81608;BME280;71022;48.122;11.576;2023-08-17T05:07:37;95722.22;;;21.14;68.28
81608;BME280;71022;48.122;11.576;2023-08-17T05:10:04;95724.06;;;21.24;67.99
81608;BME280;71022;48.122;11.576;2023-08-17T05:12:35;95727.13;;;21.33;67.75
81608;BME280;71022;48.122;11.576;2023-08-17T05:15:03;95729.91;;;21.63;66.29
81608;BME280;71022;48.122;11.576;2023-08-17T05:17:30;95725.53;;;21.35;67.46
81608;BME280;71022;48.122;11.576;2023-08-17T05:19:58;95714.03;;;20.96;69.15
81608;BME280;71022;48.122;11.576;2023-08-17T05:22:25;95722.22;;;20.76;69.89
81608;BME280;71022;48.122;11.576;2023-08-17T05:24:52;95720.78;;;20.61;70.63
81608;BME280;71022;48.122;11.576;2023-08-17T05:27:20;95731.56;;;20.63;70.46
81608;BME280;71022;48.122;11.576;2023-08-17T05:29:48;95734.72;;;20.65;70.64
81608;BME280;71022;48.122;11.576;2023-08-17T05:32:18;95725.16;;;20.66;70.76
81608;BME280;71022;48.122;11.576;2023-08-17T05:34:52;95734.41;;;20.93;70.00
81608;BME280;71022;48.122;11.576;2023-08-17T05:37:20;95731.44;;;21.11;69.22
81608;BME280;71022;48.122;11.576;2023-08-17T05:39:48;95736.78;;;21.28;68.51
81608;BME280;71022;48.122;11.576;2023-08-17T05:42:20;95731.13;;;21.35;68.47
81608;BME280;71022;48.122;11.576;2023-08-17T05:44:51;95725.44;;;21.39;68.21
81608;BME280;71022;48.122;11.576;2023-08-17T05:47:18;95724.56;;;21.45;67.89
81608;BME280;71022;48.122;11.576;2023-08-17T05:49:46;95722.03;;;21.55;67.89
81608;BME280;71022;48.122;11.576;2023-08-17T05:52:14;95736.28;;;21.64;67.53
81608;BME280;71022;48.122;11.576;2023-08-17T05:54:41;95736.91;;;21.75;67.17
81608;BME280;71022;48.122;11.576;2023-08-17T05:57:10;95744.31;;;21.62;67.46
81608;BME280;71022;48.122;11.576;2023-08-17T05:59:38;95741.03;;;21.67;67.84
81608;BME280;71022;48.122;11.576;2023-08-17T06:02:08;95732.28;;;21.65;68.08
81608;BME280;71022;48.122;11.576;2023-08-17T06:04:39;95744.44;;;21.78;67.63
81608;BME280;71022;48.122;11.576;2023-08-17T06:07:08;95743.63;;;21.81;67.41
81608;BME280;71022;48.122;11.576;2023-08-17T06:09:36;95744.66;;;21.94;66.99
81608;BME280;71022;48.122;11.576;2023-08-17T06:12:06;95750.16;;;22.01;67.07
81608;BME280;71022;48.122;11.576;2023-08-17T06:14:35;95730.91;;;22.03;66.20
81608;BME280;71022;48.122;11.576;2023-08-17T06:17:03;95751.44;;;21.93;66.72
81608;BME280;71022;48.122;11.576;2023-08-17T06:19:32;95746.78;;;21.83;67.01
81608;BME280;71022;48.122;11.576;2023-08-17T06:22:01;95749.50;;;21.90;67.05
81608;BME280;71022;48.122;11.576;2023-08-17T06:24:29;95737.97;;;22.11;66.01
81608;BME280;71022;48.122;11.576;2023-08-17T06:26:56;95739.91;;;22.14;65.84
81608;BME280;71022;48.122;11.576;2023-08-17T06:29:24;95744.97;;;22.23;65.25
81608;BME280;71022;48.122;11.576;2023-08-17T06:31:52;95749.41;;;22.43;64.80
81608;BME280;71022;48.122;11.576;2023-08-17T06:34:20;95742.72;;;22.60;64.57
81608;BME280;71022;48.122;11.576;2023-08-17T06:37:01;95748.53;;;22.93;62.83
81608;BME280;71022;48.122;11.576;2023-08-17T06:39:31;95734.59;;;23.29;61.81
81608;BME280;71022;48.122;11.576;2023-08-17T06:42:00;95735.78;;;23.67;59.94
81608;BME280;71022;48.122;11.576;2023-08-17T06:44:32;95747.47;;;23.82;59.69
81608;BME280;71022;48.122;11.576;2023-08-17T06:47:06;95749.44;;;24.01;59.65
81608;BME280;71022;48.122;11.576;2023-08-17T06:49:37;95752.09;;;24.24;58.78
81608;BME280;71022;48.122;11.576;2023-08-17T06:52:05;95740.25;;;24.49;57.97
81608;BME280;71022;48.122;11.576;2023-08-17T06:54:33;95742.94;;;24.68;57.93
81608;BME280;71022;48.122;11.576;2023-08-17T06:57:06;95742.94;;;24.85;56.83
81608;BME280;71022;48.122;11.576;2023-08-17T06:59:34;95739.31;;;25.13;56.07
81608;BME280;71022;48.122;11.576;2023-08-17T07:02:04;95746.13;;;25.28;55.78
81608;BME280;71022;48.122;11.576;2023-08-17T07:04:36;95750.06;;;25.59;54.89
81608;BME280;71022;48.122;11.576;2023-08-17T07:07:05;95745.44;;;25.78;54.03
81608;BME280;71022;48.122;11.576;2023-08-17T07:09:33;95744.09;;;26.08;52.70
81608;BME280;71022;48.122;11.576;2023-08-17T07:12:01;95751.44;;;26.43;51.51
81608;BME280;71022;48.122;11.576;2023-08-17T07:14:29;95753.00;;;26.57;51.97
81608;BME280;71022;48.122;11.576;2023-08-17T07:17:00;95754.50;;;26.96;50.49
81608;BME280;71022;48.122;11.576;2023-08-17T07:19:28;95755.81;;;27.04;49.07
81608;BME280;71022;48.122;11.576;2023-08-17T07:22:16;95756.22;;;27.15;49.55
81608;BME280;71022;48.122;11.576;2023-08-17T07:24:43;95755.03;;;27.25;48.89
81608;BME280;71022;48.122;11.576;2023-08-17T07:27:11;95760.84;;;27.43;47.96
81608;BME280;71022;48.122;11.576;2023-08-17T07:29:38;95766.06;;;27.32;48.42
81608;BME280;71022;48.122;11.576;2023-08-17T07:32:06;95756.78;;;27.44;47.73
81608;BME280;71022;48.122;11.576;2023-08-17T07:34:33;95756.78;;;27.44;47.63
81608;BME280;71022;48.122;11.576;2023-08-17T07:37:16;95759.06;;;27.58;47.29
81608;BME280;71022;48.122;11.576;2023-08-17T07:39:51;95760.16;;;27.82;46.53
81608;BME280;71022;48.122;11.576;2023-08-17T07:42:19;95757.16;;;27.55;47.64
81608;BME280;71022;48.122;11.576;2023-08-17T07:45:11;95760.25;;;28.00;46.67
81608;BME280;71022;48.122;11.576;2023-08-17T07:47:42;95760.88;;;27.95;46.61
81608;BME280;71022;48.122;11.576;2023-08-17T07:50:10;95764.16;;;28.25;46.09
81608;BME280;71022;48.122;11.576;2023-08-17T07:52:37;95757.69;;;28.15;45.93
81608;BME280;71022;48.122;11.576;2023-08-17T07:55:04;95758.97;;;27.92;46.80
81608;BME280;71022;48.122;11.576;2023-08-17T07:57:32;95755.16;;;28.17;46.64
81608;BME280;71022;48.122;11.576;2023-08-17T07:59:59;95756.53;;;28.52;46.12
81608;BME280;71022;48.122;11.576;2023-08-17T08:02:27;95755.16;;;28.57;45.60
81608;BME280;71022;48.122;11.576;2023-08-17T08:04:54;95751.91;;;28.77;44.40
81608;BME280;71022;48.122;11.576;2023-08-17T08:07:22;95755.56;;;29.04;44.04
81608;BME280;71022;48.122;11.576;2023-08-17T08:09:49;95753.69;;;29.20;43.30
81608;BME280;71022;48.122;11.576;2023-08-17T08:12:16;95749.13;;;29.49;43.18
81608;BME280;71022;48.122;11.576;2023-08-17T08:14:43;95753.38;;;29.54;42.30
81608;BME280;71022;48.122;11.576;2023-08-17T08:17:11;95751.81;;;29.62;42.65
81608;BME280;71022;48.122;11.576;2023-08-17T08:19:38;95749.28;;;29.64;42.23
81608;BME280;71022;48.122;11.576;2023-08-17T08:22:05;95748.16;;;29.89;42.32
81608;BME280;71022;48.122;11.576;2023-08-17T08:24:32;95742.84;;;30.14;41.93
81608;BME280;71022;48.122;11.576;2023-08-17T08:27:05;95741.19;;;30.32;40.95
81608;BME280;71022;48.122;11.576;2023-08-17T08:29:33;95749.97;;;30.52;41.00
81608;BME280;71022;48.122;11.576;2023-08-17T08:34:42;95756.00;;;30.36;41.13
81608;BME280;71022;48.122;11.576;2023-08-17T08:37:09;95735.28;;;30.21;41.00
81608;BME280;71022;48.122;11.576;2023-08-17T08:39:51;95727.22;;;29.86;41.53
81608;BME280;71022;48.122;11.576;2023-08-17T08:50:16;95751.66;;;29.56;43.70
81608;BME280;71022;48.122;11.576;2023-08-17T08:53:20;95752.47;;;29.48;42.96
81608;BME280;71022;48.122;11.576;2023-08-17T08:56:34;95739.81;;;29.67;42.90
81608;BME280;71022;48.122;11.576;2023-08-17T08:59:20;95734.44;;;29.87;41.92
81608;BME280;71022;48.122;11.576;2023-08-17T09:02:25;95740.69;;;30.09;41.94
81608;BME280;71022;48.122;11.576;2023-08-17T09:05:59;95736.09;;;30.12;41.49
81608;BME280;71022;48.122;11.576;2023-08-17T09:08:38;95736.38;;;29.63;43.68
81608;BME280;71022;48.122;11.576;2023-08-17T09:12:28;95719.13;;;30.03;42.83
81608;BME280;71022;48.122;11.576;2023-08-17T09:15:18;95728.69;;;30.14;42.39
81608;BME280;71022;48.122;11.576;2023-08-17T09:17:56;95733.44;;;30.08;43.12
81608;BME280;71022;48.122;11.576;2023-08-17T09:21:03;95734.56;;;30.44;41.34
81608;BME280;71022;48.122;11.576;2023-08-17T09:25:00;95723.00;;;30.56;42.28
81608;BME280;71022;48.122;11.576;2023-08-17T09:27:13;95715.34;;;30.48;41.70
81608;BME280;71022;48.122;11.576;2023-08-17T09:30:04;95716.59;;;30.38;42.33
81608;BME280;71022;48.122;11.576;2023-08-17T09:32:50;95721.22;;;29.93;42.85
81608;BME280;71022;48.122;11.576;2023-08-17T09:35:17;95701.91;;;29.74;41.87
81608;BME280;71022;48.122;11.576;2023-08-17T09:37:48;95720.19;;;30.14;41.69
81608;BME280;71022;48.122;11.576;2023-08-17T09:40:21;95720.22;;;30.47;41.83
81608;BME280;71022;48.122;11.576;2023-08-17T09:42:56;95708.56;;;31.16;40.17
81608;BME280;71022;48.122;11.576;2023-08-17T09:45:25;95710.25;;;31.23;37.98
81608;BME280;71022;48.122;11.576;2023-08-17T09:47:54;95713.53;;;30.83;37.86
81608;BME280;71022;48.122;11.576;2023-08-17T09:50:25;95709.00;;;30.77;39.31
81608;BME280;71022;48.122;11.576;2023-08-17T09:52:53;95713.06;;;30.61;40.33
81608;BME280;71022;48.122;11.576;2023-08-17T09:55:22;95707.84;;;30.83;38.56
81608;BME280;71022;48.122;11.576;2023-08-17T09:57:50;95705.19;;;30.56;38.94
81608;BME280;71022;48.122;11.576;2023-08-17T10:00:19;95710.53;;;30.63;39.29
81608;BME280;71022;48.122;11.576;2023-08-17T10:02:52;95704.66;;;30.43;38.94
81608;BME280;71022;48.122;11.576;2023-08-17T10:05:20;95704.28;;;30.17;39.00
81608;BME280;71022;48.122;11.576;2023-08-17T10:07:54;95705.44;;;30.10;39.84
81608;BME280;71022;48.122;11.576;2023-08-17T10:10:28;95713.06;;;29.77;40.78
81608;BME280;71022;48.122;11.576;2023-08-17T10:16:24;95704.38;;;29.90;40.63
81608;BME280;71022;48.122;11.576;2023-08-17T10:19:05;95707.00;;;30.02;40.20
81608;BME280;71022;48.122;11.576;2023-08-17T10:24:33;95700.31;;;30.24;39.95
81608;BME280;71022;48.122;11.576;2023-08-17T10:27:05;95702.47;;;30.29;39.87
81608;BME280;71022;48.122;11.576;2023-08-17T10:29:33;95708.53;;;30.22;39.36
81608;BME280;71022;48.122;11.576;2023-08-17T10:32:01;95697.25;;;30.03;39.04
81608;BME280;71022;48.122;11.576;2023-08-17T10:34:29;95695.97;;;29.62;40.22
81608;BME280;71022;48.122;11.576;2023-08-17T10:36:59;95702.78;;;29.38;40.05
81608;BME280;71022;48.122;11.576;2023-08-17T10:39:28;95706.84;;;29.37;40.57
81608;BME280;71022;48.122;11.576;2023-08-17T10:41:58;95693.78;;;29.48;39.88
81608;BME280;71022;48.122;11.576;2023-08-17T10:44:43;95697.88;;;29.56;39.71
81608;BME280;71022;48.122;11.576;2023-08-17T10:47:30;95690.28;;;29.72;40.55
81608;BME280;71022;48.122;11.576;2023-08-17T10:50:06;95697.06;;;29.56;39.39
81608;BME280;71022;48.122;11.576;2023-08-17T10:52:49;95699.31;;;29.34;40.36
81608;BME280;71022;48.122;11.576;2023-08-17T10:55:17;95700.22;;;29.22;40.32
81608;BME280;71022;48.122;11.576;2023-08-17T10:58:04;95696.00;;;28.99;40.47
81608;BME280;71022;48.122;11.576;2023-08-17T11:00:42;95687.03;;;28.91;40.37
81608;BME280;71022;48.122;11.576;2023-08-17T11:03:22;95694.28;;;29.10;39.62
81608;BME280;71022;48.122;11.576;2023-08-17T11:05:56;95698.06;;;29.35;39.74
81608;BME280;71022;48.122;11.576;2023-08-17T11:08:50;95692.69;;;29.46;39.96
81608;BME280;71022;48.122;11.576;2023-08-17T11:11:20;95698.50;;;29.42;38.74
81608;BME280;71022;48.122;11.576;2023-08-17T11:13:47;95689.06;;;29.45;38.62
81608;BME280;71022;48.122;11.576;2023-08-17T11:16:17;95690.31;;;29.53;38.33
81608;BME280;71022;48.122;11.576;2023-08-17T11:18:47;95681.47;;;29.60;38.61
81608;BME280;71022;48.122;11.576;2023-08-17T11:21:18;95681.66;;;29.57;39.48
81608;BME280;71022;48.122;11.576;2023-08-17T11:23:47;95693.97;;;29.36;39.48
81608;BME280;71022;48.122;11.576;2023-08-17T11:26:18;95697.75;;;29.33;40.17
81608;BME280;71022;48.122;11.576;2023-08-17T11:28:46;95678.25;;;29.35;39.91
81608;BME280;71022;48.122;11.576;2023-08-17T11:31:14;95684.38;;;29.33;41.88
81608;BME280;71022;48.122;11.576;2023-08-17T11:33:43;95678.81;;;29.57;41.71
81608;BME280;71022;48.122;11.576;2023-08-17T11:36:15;95670.63;;;29.68;41.96
81608;BME280;71022;48.122;11.576;2023-08-17T11:38:46;95670.25;;;29.75;41.91
81608;BME280;71022;48.122;11.576;2023-08-17T11:41:14;95674.34;;;29.92;41.93
81608;BME280;71022;48.122;11.576;2023-08-17T11:43:45;95672.75;;;30.24;41.14
81608;BME280;71022;48.122;11.576;2023-08-17T11:46:13;95666.06;;;30.12;41.79
81608;BME280;71022;48.122;11.576;2023-08-17T11:48:44;95660.78;;;29.96;42.39
81608;BME280;71022;48.122;11.576;2023-08-17T11:51:11;95669.31;;;29.78;43.24
81608;BME280;71022;48.122;11.576;2023-08-17T11:53:39;95659.47;;;29.64;42.49
81608;BME280;71022;48.122;11.576;2023-08-17T11:56:07;95654.22;;;29.72;43.17
81608;BME280;71022;48.122;11.576;2023-08-17T11:58:42;95652.91;;;30.00;42.22
81608;BME280;71022;48.122;11.576;2023-08-17T12:01:11;95650.72;;;29.95;42.02
81608;BME280;71022;48.122;11.576;2023-08-17T12:03:40;95645.69;;;29.90;41.96
81608;BME280;71022;48.122;11.576;2023-08-17T12:06:10;95655.09;;;29.96;42.23
81608;BME280;71022;48.122;11.576;2023-08-17T12:08:46;95650.13;;;29.82;43.03
81608;BME280;71022;48.122;11.576;2023-08-17T12:11:16;95651.56;;;29.78;42.88
81608;BME280;71022;48.122;11.576;2023-08-17T12:13:53;95648.56;;;29.81;42.89
81608;BME280;71022;48.122;11.576;2023-08-17T12:16:22;95655.16;;;29.78;42.55
81608;BME280;71022;48.122;11.576;2023-08-17T12:18:51;95645.44;;;29.70;42.88
81608;BME280;71022;48.122;11.576;2023-08-17T12:21:20;95641.19;;;29.84;42.93
81608;BME280;71022;48.122;11.576;2023-08-17T12:23:48;95637.97;;;29.91;42.57
81608;BME280;71022;48.122;11.576;2023-08-17T12:26:19;95633.44;;;29.75;43.18
81608;BME280;71022;48.122;11.576;2023-08-17T12:28:47;95625.91;;;29.72;43.84
81608;BME280;71022;48.122;11.576;2023-08-17T12:31:21;95633.78;;;29.77;43.84
81608;BME280;71022;48.122;11.576;2023-08-17T12:33:56;95612.38;;;29.85;43.03
81608;BME280;71022;48.122;11.576;2023-08-17T12:36:36;95611.41;;;29.88;42.76
81608;BME280;71022;48.122;11.576;2023-08-17T12:39:07;95614.81;;;30.01;42.25
81608;BME280;71022;48.122;11.576;2023-08-17T12:42:04;95611.41;;;29.88;42.12
81608;BME280;71022;48.122;11.576;2023-08-17T12:44:38;95603.03;;;29.94;41.66
81608;BME280;71022;48.122;11.576;2023-08-17T12:47:05;95606.25;;;30.10;41.82
81608;BME280;71022;48.122;11.576;2023-08-17T12:53:45;95605.34;;;30.04;40.67
81608;BME280;71022;48.122;11.576;2023-08-17T12:56:38;95603.47;;;30.01;39.93
81608;BME280;71022;48.122;11.576;2023-08-17T12:59:17;95596.75;;;29.90;40.20
81608;BME280;71022;48.122;11.576;2023-08-17T13:01:53;95593.75;;;29.93;39.92
81608;BME280;71022;48.122;11.576;2023-08-17T13:04:24;95585.56;;;29.95;40.06
81608;BME280;71022;48.122;11.576;2023-08-17T13:06:57;95575.28;;;30.07;39.00
81608;BME280;71022;48.122;11.576;2023-08-17T13:09:24;95590.53;;;30.09;38.80
81608;BME280;71022;48.122;11.576;2023-08-17T13:11:52;95588.41;;;30.19;38.53
81608;BME280;71022;48.122;11.576;2023-08-17T13:14:19;95590.41;;;30.28;38.47
81608;BME280;71022;48.122;11.576;2023-08-17T13:16:46;95579.34;;;30.30;38.59
81608;BME280;71022;48.122;11.576;2023-08-17T13:19:14;95585.63;;;30.34;38.12
81608;BME280;71022;48.122;11.576;2023-08-17T13:21:41;95588.53;;;30.25;38.50
81608;BME280;71022;48.122;11.576;2023-08-17T13:24:08;95577.03;;;30.28;37.87
81608;BME280;71022;48.122;11.576;2023-08-17T13:26:36;95587.97;;;30.35;38.13
81608;BME280;71022;48.122;11.576;2023-08-17T13:29:03;95578.06;;;30.40;38.24
81608;BME280;71022;48.122;11.576;2023-08-17T13:31:30;95582.47;;;30.32;38.36
81608;BME280;71022;48.122;11.576;2023-08-17T13:33:58;95577.56;;;30.17;38.36
81608;BME280;71022;48.122;11.576;2023-08-17T13:36:25;95580.03;;;30.25;37.96
81608;BME280;71022;48.122;11.576;2023-08-17T13:38:53;95576.63;;;30.35;37.22